Larrys Creek, Pennsylvania
Current Conditions -  °F | °C
As of 6:54 PM on Friday 28 Nov 2014 (Local Time) from KIPT Reporting Station
Clear Clear  
Wind Chill: 20°   Ceiling: Unl
Heat Index: 27°   Visibility: 10mi
Dew Point: 14°   Wind: 6mph
Humidity: 58%   Direction: 280°W
Pressure: 30.23"   Gusts: NA
Location:  41.1288°N, 77.1989°W
Report Text: KIPT 282354Z 28005KT 10SM CLR M03/M10 A3023 RMK AO2 SLP244 T10281100 10011 21039 51010
Loading
Personal Weather Stations






























Interactive Weather Map New forecast layout! Learn more

10-Day Weather Forecast

Advertisements
Track Severe Weather on mobile